Time;durP1;ratioP1;P1;durP2;ratioP2;P2;SDS_P1;SDS_P2;PMS_P1;PMS_P2;Temp;Humidity;BMP_temperature;BMP_pressure;BME280_temperature;BME280_humidity;BME280_pressure;Samples;Min_cycle;Max_cycle;Signal;HPM_P1;HPM_P2
2022/01/31 00:01:26;;;;;;;5.03;2.25;;;0.80;99.90;;;;;;5071678;28;20063;-58
2022/01/31 00:03:53;;;;;;;6.30;1.95;;;0.80;99.90;;;;;;5053630;28;20076;-58
2022/01/31 00:06:20;;;;;;;14.13;3.35;;;0.80;99.90;;;;;;5071350;28;20098;-58
2022/01/31 00:08:50;;;;;;;13.20;2.67;;;0.80;99.90;;;;;;5071123;28;20135;-58
2022/01/31 00:11:17;;;;;;;5.07;1.77;;;0.70;99.90;;;;;;5071449;28;20036;-58
2022/01/31 00:13:54;;;;;;;8.18;2.78;;;0.70;99.90;;;;;;5071480;28;20119;-58
2022/01/31 00:16:24;;;;;;;3.63;1.40;;;0.70;99.90;;;;;;5071272;28;20451;-57
2022/01/31 00:18:51;;;;;;;5.72;2.65;;;0.70;99.90;;;;;;5070945;28;20285;-58
2022/01/31 00:21:19;;;;;;;11.15;2.25;;;0.70;99.90;;;;;;5071425;28;20500;-57
2022/01/31 00:23:46;;;;;;;10.43;2.33;;;0.70;99.90;;;;;;5071377;28;20041;-58
2022/01/31 00:26:13;;;;;;;5.57;2.03;;;0.60;99.90;;;;;;5071097;28;20048;-57
2022/01/31 00:28:39;;;;;;;10.63;2.72;;;0.50;99.90;;;;;;5070902;28;20127;-57
2022/01/31 00:31:06;;;;;;;10.68;2.55;;;0.50;99.90;;;;;;5071468;28;20408;-58
2022/01/31 00:33:34;;;;;;;10.60;2.88;;;0.40;99.90;;;;;;5070979;28;20047;-57
2022/01/31 00:36:01;;;;;;;10.15;3.10;;;0.40;99.90;;;;;;5071431;28;20451;-58
2022/01/31 00:38:29;;;;;;;10.85;2.70;;;0.30;99.90;;;;;;5052897;28;20048;-58
2022/01/31 00:40:56;;;;;;;8.88;2.55;;;0.30;99.90;;;;;;5071175;28;20041;-58
2022/01/31 00:43:23;;;;;;;;;;;0.30;99.90;;;;;;5053751;28;20048;-58
2022/01/31 00:46:02;;;;;;;6.93;2.63;;;0.30;99.90;;;;;;5070851;28;20379;-59
2022/01/31 00:48:34;;;;;;;6.40;2.97;;;0.40;99.90;;;;;;5070801;28;20090;-58
2022/01/31 00:51:00;;;;;;;12.23;2.63;;;0.30;99.90;;;;;;5053146;28;20094;-58
2022/01/31 00:53:27;;;;;;;9.93;2.70;;;0.30;99.90;;;;;;5071162;28;20075;-57
2022/01/31 00:55:54;;;;;;;7.18;2.50;;;0.20;99.90;;;;;;5053041;28;20048;-58
2022/01/31 00:58:22;;;;;;;11.75;3.28;;;0.20;99.90;;;;;;5070443;28;20152;-58
2022/01/31 01:00:49;;;;;;;9.02;2.35;;;0.20;99.90;;;;;;5053044;28;20059;-58
2022/01/31 01:03:16;;;;;;;9.30;3.10;;;0.20;99.90;;;;;;5071011;28;20637;-58
2022/01/31 01:05:43;;;;;;;12.48;3.00;;;0.20;99.90;;;;;;5052968;28;20044;-58
2022/01/31 01:08:10;;;;;;;8.88;3.20;;;0.20;99.90;;;;;;5053515;28;20132;-58
2022/01/31 01:10:37;;;;;;;;;;;0.10;99.90;;;;;;5056946;28;20136;-58
2022/01/31 01:13:04;;;;;;;13.60;3.47;;;-0.10;99.90;;;;;;5074460;28;19990;-58
2022/01/31 01:15:31;;;;;;;8.00;3.55;;;-0.20;99.90;;;;;;5056553;28;20511;-58
2022/01/31 01:17:58;;;;;;;10.20;2.97;;;-0.30;99.90;;;;;;5074173;28;20051;-58
2022/01/31 01:20:26;;;;;;;7.72;3.60;;;-0.40;99.90;;;;;;5056465;28;20045;-58
2022/01/31 01:22:53;;;;;;;7.55;3.22;;;-0.30;99.90;;;;;;5056331;28;20091;-58
2022/01/31 01:25:21;;;;;;;7.85;3.20;;;-0.40;99.90;;;;;;5056810;28;20180;-58
2022/01/31 01:27:51;;;;;;;4.93;2.85;;;-0.30;99.90;;;;;;5055702;28;20596;-58
2022/01/31 01:30:18;;;;;;;9.50;3.60;;;-0.30;99.90;;;;;;5056268;28;20101;-58
2022/01/31 01:33:12;;;;;;;7.32;3.45;;;-0.20;99.90;;;;;;5056266;28;20048;-58
2022/01/31 01:35:36;;;;;;;8.90;2.65;;;-0.20;99.90;;;;;;5056114;28;20044;-58
2022/01/31 01:38:07;;;;;;;14.80;3.45;;;-0.40;99.90;;;;;;5073449;28;20045;-58
2022/01/31 01:40:37;;;;;;;10.65;3.72;;;-0.60;99.90;;;;;;5056197;28;20075;-58
2022/01/31 01:43:06;;;;;;;10.48;3.72;;;-0.70;99.90;;;;;;5056066;28;20056;-58
2022/01/31 01:45:34;;;;;;;6.93;3.53;;;-0.70;99.90;;;;;;5056169;28;20075;-58
2022/01/31 01:48:01;;;;;;;10.07;4.30;;;-0.60;99.90;;;;;;5073443;28;20396;-58
2022/01/31 01:50:28;;;;;;;12.73;4.50;;;-0.60;99.90;;;;;;5055921;28;20134;-58
2022/01/31 01:52:55;;;;;;;14.32;4.25;;;-0.50;99.90;;;;;;5055669;28;20140;-58
2022/01/31 01:55:22;;;;;;;5.95;2.55;;;-0.50;99.90;;;;;;5073925;28;20064;-58
2022/01/31 01:57:49;;;;;;;10.88;3.97;;;-0.50;99.90;;;;;;5055301;28;20044;-58
2022/01/31 02:00:23;;;;;;;10.98;4.20;;;-0.60;99.90;;;;;;5072549;28;20045;-58
2022/01/31 02:02:51;;;;;;;7.93;3.60;;;-0.60;99.90;;;;;;5074041;28;20059;-58
2022/01/31 02:05:20;;;;;;;9.38;3.22;;;-0.60;99.90;;;;;;5055405;28;20049;-58
2022/01/31 02:07:49;;;;;;;10.63;3.85;;;-0.70;99.90;;;;;;5055137;28;20041;-58
2022/01/31 02:10:16;;;;;;;;;;;-0.70;99.90;;;;;;5056134;28;20113;-58
2022/01/31 02:13:03;;;;;;;16.13;3.80;;;-0.70;99.90;;;;;;5055533;28;20396;-58
2022/01/31 02:15:51;;;;;;;16.55;3.97;;;-0.70;99.90;;;;;;5073733;28;20102;-58
2022/01/31 02:18:44;;;;;;;10.75;3.90;;;-0.70;99.90;;;;;;5072972;28;20055;-57
2022/01/31 02:21:16;;;;;;;11.25;3.80;;;-0.70;99.90;;;;;;5054896;28;20151;-58
2022/01/31 02:23:44;;;;;;;11.20;4.32;;;-0.70;99.90;;;;;;5055397;28;20522;-57
2022/01/31 02:26:24;;;;;;;13.73;3.97;;;-0.60;99.90;;;;;;5055168;28;20119;-58
2022/01/31 02:28:57;;;;;;;12.85;4.03;;;-0.60;99.90;;;;;;5054924;28;20135;-58
2022/01/31 02:31:24;;;;;;;10.90;3.92;;;-0.60;99.90;;;;;;5055038;28;20503;-58
2022/01/31 02:33:51;;;;;;;12.45;4.05;;;-0.60;99.90;;;;;;5073122;28;20032;-58
2022/01/31 02:36:18;;;;;;;8.10;3.20;;;-0.60;99.90;;;;;;5072979;28;20071;-58
2022/01/31 02:38:45;;;;;;;11.25;3.92;;;-0.60;99.90;;;;;;5054611;28;20044;-58
2022/01/31 02:41:13;;;;;;;8.50;3.78;;;-0.60;99.90;;;;;;5055053;28;20481;-58
2022/01/31 02:43:40;;;;;;;7.35;2.72;;;-0.60;99.90;;;;;;5072748;28;20128;-58
2022/01/31 02:46:14;;;;;;;8.40;3.13;;;-0.60;99.90;;;;;;5054932;28;20052;-58
2022/01/31 02:48:51;;;;;;;9.05;3.10;;;-0.60;99.90;;;;;;5054363;28;20052;-58
2022/01/31 02:51:22;;;;;;;6.10;3.08;;;-0.60;99.90;;;;;;5054763;28;20041;-58
2022/01/31 02:53:49;;;;;;;9.00;3.47;;;-0.60;99.90;;;;;;5054572;28;20044;-59
2022/01/31 02:56:16;;;;;;;10.65;3.35;;;-0.50;99.90;;;;;;5072669;28;20128;-58
2022/01/31 02:58:43;;;;;;;10.85;3.47;;;-0.50;99.90;;;;;;5054353;28;20052;-58
2022/01/31 03:01:11;;;;;;;6.43;2.50;;;-0.50;99.90;;;;;;5054604;28;20044;-58
2022/01/31 03:03:41;;;;;;;9.40;3.03;;;-0.50;99.90;;;;;;5054288;28;20501;-58
2022/01/31 03:06:08;;;;;;;8.48;3.50;;;-0.40;99.90;;;;;;5054455;28;20106;-58
2022/01/31 03:08:36;;;;;;;14.88;3.67;;;-0.40;99.90;;;;;;5054073;28;20732;-59
2022/01/31 03:11:17;;;;;;;10.60;3.22;;;-0.40;99.90;;;;;;5054489;28;20045;-58
2022/01/31 03:14:16;;;;;;;11.45;3.13;;;-0.40;99.90;;;;;;5065238;28;20094;-58
2022/01/31 03:16:49;;;;;;;8.40;2.80;;;-0.40;99.90;;;;;;5053894;28;20045;-58
2022/01/31 03:19:20;;;;;;;10.70;3.00;;;-0.50;99.90;;;;;;5070742;28;20048;-58
2022/01/31 03:21:59;;;;;;;8.82;2.78;;;-0.50;99.90;;;;;;5054262;28;20040;-58
2022/01/31 03:24:26;;;;;;;9.60;3.08;;;-0.80;99.90;;;;;;5054130;28;20052;-58
2022/01/31 03:26:53;;;;;;;8.73;3.42;;;-1.00;99.90;;;;;;5094805;22;20043;-56
2022/01/31 03:29:20;;;;;;;9.13;3.60;;;-1.20;99.90;;;;;;5093843;28;20127;-52
2022/01/31 03:31:47;;;;;;;8.23;3.20;;;-1.20;99.90;;;;;;5093175;28;20108;-52
2022/01/31 03:34:14;;;;;;;9.50;3.45;;;-1.10;99.90;;;;;;5094339;28;20039;-52
2022/01/31 03:36:42;;;;;;;8.55;2.97;;;-1.00;99.90;;;;;;5089737;28;20496;-53
2022/01/31 03:39:16;;;;;;;8.05;3.22;;;-0.90;99.90;;;;;;5090828;28;20048;-51
2022/01/31 03:41:43;;;;;;;4.85;3.05;;;-0.80;99.90;;;;;;5092092;28;20052;-51
2022/01/31 03:44:10;;;;;;;7.25;2.50;;;-0.80;99.90;;;;;;5073824;28;20420;-51
2022/01/31 03:46:38;;;;;;;8.43;2.88;;;-0.80;99.90;;;;;;5073776;28;20044;-55
2022/01/31 03:49:05;;;;;;;6.78;3.15;;;-0.80;99.90;;;;;;5069127;28;20493;-55
2022/01/31 03:51:44;;;;;;;8.57;2.55;;;-0.80;99.90;;;;;;5062005;28;20123;-51
2022/01/31 03:54:15;;;;;;;11.23;2.85;;;-0.80;99.90;;;;;;5053860;28;20094;-52
2022/01/31 03:56:42;;;;;;;5.25;2.45;;;-0.80;99.90;;;;;;5070283;28;20102;-52
2022/01/31 03:59:32;;;;;;;6.93;2.45;;;-0.80;99.90;;;;;;5071496;28;20136;-54
2022/01/31 04:01:59;;;;;;;5.93;2.58;;;-0.70;99.90;;;;;;5070098;28;20504;-52
2022/01/31 04:04:26;;;;;;;10.35;3.33;;;-0.70;99.90;;;;;;5072186;28;20397;-52
2022/01/31 04:06:54;;;;;;;7.53;2.63;;;-0.80;99.90;;;;;;5071490;28;20091;-53
2022/01/31 04:09:20;;;;;;;11.90;3.00;;;-0.70;99.90;;;;;;5071656;28;20065;-51
2022/01/31 04:11:47;;;;;;;7.22;2.70;;;-0.60;99.90;;;;;;5071713;28;20048;-52
2022/01/31 04:14:14;;;;;;;7.28;2.85;;;-0.60;99.90;;;;;;5071559;28;20128;-54
2022/01/31 04:16:41;;;;;;;10.95;2.95;;;-0.50;99.90;;;;;;5071588;28;20052;-54
2022/01/31 04:19:08;;;;;;;5.88;2.75;;;-0.60;99.90;;;;;;5071498;28;20397;-52
2022/01/31 04:21:35;;;;;;;8.10;3.83;;;-0.60;99.90;;;;;;5071563;28;20056;-53
2022/01/31 04:24:02;;;;;;;8.93;3.00;;;-0.70;99.90;;;;;;5071572;28;20139;-53
2022/01/31 04:26:33;;;;;;;10.57;3.92;;;-0.80;99.90;;;;;;5071388;28;20045;-53
2022/01/31 04:29:11;;;;;;;10.60;3.67;;;-1.00;99.90;;;;;;5071335;28;20400;-56
2022/01/31 04:31:41;;;;;;;6.75;3.80;;;-1.20;99.90;;;;;;5086181;28;20385;-51
2022/01/31 04:34:09;;;;;;;14.15;3.72;;;-1.20;99.90;;;;;;5094672;28;20131;-51
2022/01/31 04:36:36;;;;;;;10.07;3.80;;;-1.30;99.90;;;;;;5101005;28;20085;-51
2022/01/31 04:39:03;;;;;;;9.20;3.92;;;-1.10;99.90;;;;;;5104901;28;20075;-54
2022/01/31 04:41:30;;;;;;;8.73;3.92;;;-1.20;99.90;;;;;;5105579;28;20044;-51
2022/01/31 04:44:03;;;;;;;11.50;3.67;;;-1.10;99.90;;;;;;5111425;28;20147;-52
2022/01/31 04:46:30;;;;;;;11.70;4.25;;;-1.00;99.90;;;;;;5106084;28;20062;-52
2022/01/31 04:48:57;;;;;;;;;;;-1.00;99.90;;;;;;5095757;28;20052;-52
2022/01/31 04:51:24;;;;;;;20.85;5.50;;;-0.90;99.90;;;;;;5097641;28;19927;-52
2022/01/31 04:53:51;;;;;;;12.98;5.53;;;-0.80;99.90;;;;;;5095240;28;20086;-52
2022/01/31 04:56:19;;;;;;;18.13;5.90;;;-0.80;99.90;;;;;;5095484;28;20102;-54
2022/01/31 04:58:46;;;;;;;11.07;4.05;;;-0.80;99.90;;;;;;5094950;28;20044;-55
2022/01/31 05:01:13;;;;;;;10.10;2.97;;;-0.70;99.90;;;;;;5095834;28;20381;-52
2022/01/31 05:03:41;;;;;;;13.13;3.10;;;-0.80;99.90;;;;;;5115691;28;20035;-51
2022/01/31 05:06:09;;;;;;;8.68;3.47;;;-0.70;99.90;;;;;;5115292;28;20048;-53
2022/01/31 05:08:36;;;;;;;11.93;4.15;;;-0.70;99.90;;;;;;5114825;28;20143;-54
2022/01/31 05:11:07;;;;;;;7.80;4.10;;;-0.60;99.90;;;;;;5115110;28;20051;-53
2022/01/31 05:13:37;;;;;;;10.32;4.57;;;-0.60;99.90;;;;;;5095767;28;20090;-51
2022/01/31 05:16:04;;;;;;;9.02;4.18;;;-0.50;99.90;;;;;;5086784;28;20048;-51
2022/01/31 05:18:33;;;;;;;10.98;4.00;;;-0.50;99.90;;;;;;5074226;28;20041;-53
2022/01/31 05:21:00;;;;;;;7.20;3.50;;;-0.40;99.90;;;;;;5094580;28;20039;-52
2022/01/31 05:23:27;;;;;;;10.07;4.32;;;-0.30;99.90;;;;;;5085752;28;20102;-56
2022/01/31 05:25:53;;;;;;;6.38;3.08;;;-0.30;99.90;;;;;;5084206;28;20074;-55
2022/01/31 05:28:20;;;;;;;10.30;4.00;;;-0.20;99.90;;;;;;5084592;28;20079;-52
2022/01/31 05:30:47;;;;;;;8.18;3.80;;;-0.20;99.90;;;;;;5083277;28;20443;-52
2022/01/31 05:33:14;;;;;;;9.30;3.67;;;-0.20;99.90;;;;;;5083746;28;20123;-52
2022/01/31 05:35:41;;;;;;;9.38;3.58;;;-0.20;99.90;;;;;;5084865;28;20429;-52
2022/01/31 05:38:07;;;;;;;6.32;2.75;;;-0.20;99.90;;;;;;5082861;28;20127;-51
2022/01/31 05:40:35;;;;;;;7.15;3.08;;;-0.10;99.90;;;;;;5083752;28;20554;-55
2022/01/31 05:43:02;;;;;;;6.22;3.35;;;-0.10;99.90;;;;;;5085138;28;20074;-55
2022/01/31 05:45:28;;;;;;;13.27;4.55;;;-0.10;99.90;;;;;;5083315;28;20068;-52
2022/01/31 05:47:55;;;;;;;11.13;4.82;;;-0.30;99.90;;;;;;5082997;28;20048;-53
2022/01/31 05:50:22;;;;;;;7.90;3.80;;;-0.40;99.90;;;;;;5082093;28;20044;-51
2022/01/31 05:52:50;;;;;;;13.48;4.00;;;-0.50;99.90;;;;;;5074333;28;20597;-53
2022/01/31 05:55:17;;;;;;;13.68;3.92;;;-0.50;99.90;;;;;;5072841;28;20044;-53
2022/01/31 05:57:44;;;;;;;8.15;3.22;;;-0.50;99.90;;;;;;5073765;28;20468;-55
2022/01/31 06:00:12;;;;;;;10.55;4.30;;;-0.60;99.90;;;;;;5073809;28;20113;-53
2022/01/31 06:02:39;;;;;;;11.43;4.40;;;-0.60;99.90;;;;;;5073706;28;20086;-52
2022/01/31 06:05:09;;;;;;;8.82;4.40;;;-0.60;99.90;;;;;;5055426;28;20041;-55
2022/01/31 06:07:36;;;;;;;7.20;3.63;;;-0.50;99.90;;;;;;5073193;28;20113;-54
2022/01/31 06:10:03;;;;;;;8.00;3.88;;;-0.40;99.90;;;;;;5073408;28;20056;-51
2022/01/31 06:12:30;;;;;;;12.40;4.40;;;-0.40;99.90;;;;;;5073558;28;20450;-53
2022/01/31 06:14:57;;;;;;;13.05;5.47;;;-0.40;99.90;;;;;;5073356;28;20519;-53
2022/01/31 06:17:24;;;;;;;9.25;4.50;;;-0.30;99.90;;;;;;5072891;28;20037;-52
2022/01/31 06:19:51;;;;;;;8.93;4.72;;;-0.20;99.90;;;;;;5073034;28;20037;-53
2022/01/31 06:22:18;;;;;;;12.60;4.72;;;-0.20;99.90;;;;;;5073350;28;20052;-52
2022/01/31 06:24:45;;;;;;;9.27;4.40;;;-0.20;99.90;;;;;;5073321;28;20040;-55
2022/01/31 06:27:21;;;;;;;11.82;5.20;;;-0.20;99.90;;;;;;5054649;28;20558;-57
2022/01/31 06:29:47;;;;;;;7.82;4.32;;;-0.20;99.90;;;;;;5055139;28;20416;-55
2022/01/31 06:32:26;;;;;;;8.93;3.50;;;-0.30;99.90;;;;;;5054897;28;20041;-54
2022/01/31 06:34:54;;;;;;;8.20;4.18;;;-0.40;99.90;;;;;;5072991;28;20068;-52
2022/01/31 06:37:21;;;;;;;10.00;4.80;;;-0.40;99.90;;;;;;5072471;28;20048;-52
2022/01/31 06:39:48;;;;;;;9.30;4.18;;;-0.50;99.90;;;;;;5073164;28;20427;-54
2022/01/31 06:42:15;;;;;;;11.20;5.40;;;-0.50;99.90;;;;;;5072490;28;20056;-55
2022/01/31 06:44:42;;;;;;;17.58;6.22;;;-0.60;99.90;;;;;;5072748;28;20043;-52
2022/01/31 06:47:09;;;;;;;9.32;4.70;;;-0.50;99.90;;;;;;5072329;28;20102;-53
2022/01/31 06:49:35;;;;;;;14.32;5.43;;;-0.50;99.90;;;;;;5071577;28;20036;-52
2022/01/31 06:52:04;;;;;;;11.75;4.97;;;-0.40;99.90;;;;;;5071468;28;20114;-52
2022/01/31 06:54:31;;;;;;;13.93;6.90;;;-0.30;99.90;;;;;;5071129;28;20122;-52
2022/01/31 06:56:59;;;;;;;10.18;5.32;;;-0.30;99.90;;;;;;5053398;28;20055;-55
2022/01/31 06:59:26;;;;;;;14.63;6.38;;;-0.30;99.90;;;;;;5071676;28;20037;-54
2022/01/31 07:01:53;;;;;;;17.08;7.13;;;-0.30;99.90;;;;;;5053921;28;20641;-53
2022/01/31 07:04:20;;;;;;;15.30;6.40;;;-0.30;99.90;;;;;;5072204;28;20405;-54
2022/01/31 07:06:46;;;;;;;20.65;8.63;;;-0.20;99.90;;;;;;5072020;28;20086;-52
2022/01/31 07:09:13;;;;;;;19.30;10.15;;;-0.20;99.90;;;;;;5071931;28;20052;-51
2022/01/31 07:11:42;;;;;;;26.38;10.63;;;-0.20;99.90;;;;;;5072157;28;20053;-52
2022/01/31 07:16:54;;;;;;;22.55;10.45;;;0.10;99.90;;;;;;5071771;28;20074;-55
2022/01/31 07:19:25;;;;;;;18.90;9.65;;;0.10;99.90;;;;;;5071924;28;20452;-52
2022/01/31 07:21:52;;;;;;;19.27;8.45;;;0.20;99.90;;;;;;5072087;28;20273;-54
2022/01/31 07:26:46;;;;;;;18.42;8.25;;;0.20;99.90;;;;;;5071740;28;20040;-56
2022/01/31 07:29:14;;;;;;;15.18;5.78;;;0.10;99.90;;;;;;5071775;28;20040;-51
2022/01/31 07:31:42;;;;;;;16.08;6.97;;;0.10;99.90;;;;;;5071991;28;20060;-53
2022/01/31 07:34:09;;;;;;;16.45;6.57;;;0.20;99.90;;;;;;5071575;28;20040;-52
2022/01/31 07:36:36;;;;;;;16.60;6.03;;;0.30;99.90;;;;;;5072252;28;20040;-52
2022/01/31 07:39:03;;;;;;;14.00;5.85;;;0.30;99.90;;;;;;5071420;28;20044;-56
2022/01/31 07:41:30;;;;;;;;;;;0.30;99.90;;;;;;5072014;28;20064;-53
2022/01/31 07:43:58;;;;;;;11.80;5.30;;;0.40;99.90;;;;;;5071648;28;19920;-53
2022/01/31 07:46:25;;;;;;;12.65;5.40;;;0.50;99.90;;;;;;5071642;28;20033;-53
2022/01/31 07:48:54;;;;;;;18.50;7.93;;;0.50;99.90;;;;;;5071075;28;20048;-55
2022/01/31 07:51:22;;;;;;;29.88;9.00;;;0.60;99.90;;;;;;5071504;28;20068;-51
2022/01/31 07:53:49;;;;;;;19.15;10.15;;;0.60;99.90;;;;;;5071707;28;20040;-51
2022/01/31 07:56:17;;;;;;;18.08;8.00;;;0.70;99.90;;;;;;5071504;28;20041;-55
2022/01/31 07:58:44;;;;;;;13.30;6.43;;;0.70;99.90;;;;;;5071175;28;20040;-55
2022/01/31 08:01:12;;;;;;;17.77;7.32;;;0.70;99.90;;;;;;5071586;28;20616;-54
2022/01/31 08:03:39;;;;;;;14.88;7.43;;;0.60;99.90;;;;;;5071379;28;20044;-51
2022/01/31 08:06:06;;;;;;;19.02;6.93;;;0.60;99.90;;;;;;5071413;28;20516;-52
2022/01/31 08:08:34;;;;;;;15.52;7.40;;;0.60;99.90;;;;;;5071266;28;20450;-53
2022/01/31 08:11:04;;;;;;;16.30;6.38;;;0.60;99.90;;;;;;5071433;28;20103;-53
2022/01/31 08:13:33;;;;;;;14.52;5.97;;;0.60;99.90;;;;;;5071446;28;20087;-54
2022/01/31 08:18:28;;;;;;;8.60;3.85;;;0.70;99.90;;;;;;5070475;28;20072;-53
2022/01/31 08:20:56;;;;;;;9.48;4.20;;;0.70;99.90;;;;;;5071492;28;20052;-51
2022/01/31 08:23:22;;;;;;;;;;;0.70;99.90;;;;;;5071799;28;20036;-52
2022/01/31 08:25:50;;;;;;;9.80;4.22;;;0.70;99.90;;;;;;5071324;28;19920;-55
2022/01/31 08:28:20;;;;;;;13.48;5.32;;;0.90;99.90;;;;;;5070668;28;20037;-52
2022/01/31 08:30:58;;;;;;;9.77;4.65;;;1.00;99.90;;;;;;5070913;28;20055;-53
2022/01/31 08:33:34;;;;;;;9.02;3.67;;;1.10;99.90;;;;;;5071263;28;20420;-51
2022/01/31 08:36:03;;;;;;;8.32;3.60;;;1.20;99.90;;;;;;5071336;28;20056;-54
2022/01/31 08:38:30;;;;;;;12.32;4.18;;;1.40;99.90;;;;;;5071010;28;20041;-51
2022/01/31 08:40:58;;;;;;;12.52;5.25;;;1.50;99.90;;;;;;5070934;28;20298;-52
2022/01/31 08:43:26;;;;;;;10.85;4.50;;;1.70;99.90;;;;;;5071132;28;20492;-51
2022/01/31 08:45:56;;;;;;;7.25;2.90;;;1.80;99.90;;;;;;5070864;28;20040;-54
2022/01/31 08:48:25;;;;;;;7.22;3.47;;;1.80;99.90;;;;;;5070688;28;20045;-53
2022/01/31 08:50:53;;;;;;;8.95;4.10;;;1.90;99.90;;;;;;5071089;28;20075;-54
2022/01/31 08:53:21;;;;;;;6.63;2.97;;;2.00;99.90;;;;;;5071039;28;20040;-51
2022/01/31 08:55:51;;;;;;;8.15;2.75;;;2.00;99.90;;;;;;5070923;28;20473;-55
2022/01/31 08:58:19;;;;;;;6.43;2.72;;;2.00;99.90;;;;;;5070586;28;20558;-52
2022/01/31 09:00:57;;;;;;;6.53;2.53;;;2.10;99.90;;;;;;5070873;28;20033;-52
2022/01/31 09:06:06;;;;;;;11.18;4.45;;;2.30;99.90;;;;;;5070549;28;20076;-53
2022/01/31 09:08:33;;;;;;;8.30;3.47;;;2.20;99.90;;;;;;5070639;28;20578;-51
2022/01/31 09:11:00;;;;;;;5.10;3.10;;;2.10;99.90;;;;;;5070743;28;20045;-53
2022/01/31 09:13:27;;;;;;;9.00;3.90;;;2.00;99.90;;;;;;5070931;28;20044;-52
2022/01/31 09:15:54;;;;;;;6.95;3.33;;;1.90;99.90;;;;;;5070834;28;20049;-53
2022/01/31 09:18:21;;;;;;;7.93;3.92;;;1.90;99.90;;;;;;5070325;28;20044;-52
2022/01/31 09:20:48;;;;;;;11.77;4.75;;;2.00;99.90;;;;;;5070650;28;20164;-52
2022/01/31 09:23:16;;;;;;;9.30;5.10;;;2.00;99.90;;;;;;5070624;28;20455;-53
2022/01/31 09:25:46;;;;;;;9.85;3.70;;;2.10;99.90;;;;;;5070669;28;20047;-52
2022/01/31 09:28:15;;;;;;;7.20;3.90;;;2.00;99.90;;;;;;5097116;22;20048;-59
2022/01/31 09:30:44;;;;;;;7.78;4.03;;;2.00;99.90;;;;;;5074400;28;20104;-59
2022/01/31 09:33:12;;;;;;;14.23;4.32;;;2.10;99.90;;;;;;5094212;28;20059;-59
2022/01/31 09:35:42;;;;;;;9.73;4.30;;;2.00;99.90;;;;;;5094530;28;20412;-59
2022/01/31 09:38:12;;;;;;;12.48;4.38;;;1.90;99.90;;;;;;5094064;28;20044;-58
2022/01/31 09:40:40;;;;;;;10.07;4.68;;;1.70;99.90;;;;;;5094070;28;20042;-58
2022/01/31 09:51:08;;;;;;;7.05;4.00;;;1.30;99.90;;;;;;5088854;28;20060;-59
2022/01/31 09:53:43;;;;;;;14.48;4.70;;;1.30;99.90;;;;;;5079980;28;20127;-59
2022/01/31 09:56:13;;;;;;;11.27;4.22;;;1.40;99.90;;;;;;5073672;28;20048;-59
2022/01/31 09:58:41;;;;;;;7.55;4.35;;;1.50;99.90;;;;;;5073114;28;20169;-58
2022/01/31 10:01:08;;;;;;;10.38;4.47;;;1.50;99.90;;;;;;5073660;28;20485;-59
2022/01/31 10:03:55;;;;;;;10.50;4.88;;;1.60;99.90;;;;;;5073724;28;20047;-59
2022/01/31 10:06:34;;;;;;;11.65;4.95;;;1.60;99.90;;;;;;5073392;28;20083;-58
2022/01/31 10:09:33;;;;;;;12.43;6.95;;;1.70;99.90;;;;;;5073272;28;20086;-59
2022/01/31 10:12:09;;;;;;;20.55;7.30;;;1.60;99.90;;;;;;5056109;28;20071;-58
2022/01/31 10:17:32;;;;;;;15.80;6.32;;;1.60;99.90;;;;;;5073040;28;20450;-59
2022/01/31 10:20:28;;;;;;;13.25;5.35;;;1.40;99.90;;;;;;5073375;28;20041;-59
2022/01/31 10:22:57;;;;;;;13.82;7.32;;;1.50;99.90;;;;;;5073036;28;20446;-59
2022/01/31 10:25:24;;;;;;;14.93;7.28;;;1.60;99.90;;;;;;5073271;28;20043;-59
2022/01/31 10:28:17;;;;;;;23.40;9.02;;;1.40;99.90;;;;;;5072773;28;20041;-59
2022/01/31 10:30:45;;;;;;;12.40;6.45;;;1.60;99.90;;;;;;5073056;28;20079;-59
2022/01/31 10:33:14;;;;;;;17.27;7.47;;;1.70;99.90;;;;;;5073133;28;20048;-59
2022/01/31 10:35:42;;;;;;;13.98;7.32;;;1.80;99.90;;;;;;5072969;28;20527;-59
2022/01/31 10:38:15;;;;;;;17.38;6.88;;;1.80;99.90;;;;;;5072431;28;20090;-59
2022/01/31 10:57:22;;;;;;;13.35;5.72;;;1.40;99.90;;;;;;5071904;28;20040;-59
2022/01/31 10:59:55;;;;;;;14.27;6.78;;;1.40;99.90;;;;;;5072615;28;20493;-59
2022/01/31 11:02:25;;;;;;;16.20;6.88;;;1.50;99.90;;;;;;5072631;28;20078;-59
2022/01/31 11:04:53;;;;;;;15.65;6.88;;;1.60;99.90;;;;;;5072188;28;20044;-59
2022/01/31 11:07:21;;;;;;;;;;;1.60;99.90;;;;;;5072332;28;20114;-59
2022/01/31 11:09:50;;;;;;;14.32;6.45;;;1.80;99.90;;;;;;5072229;28;19924;-59
2022/01/31 11:12:22;;;;;;;11.77;6.28;;;1.80;99.90;;;;;;5072360;28;20049;-59
2022/01/31 11:14:53;;;;;;;25.63;6.78;;;1.80;99.90;;;;;;5072341;28;20040;-59
2022/01/31 11:17:21;;;;;;;18.17;7.05;;;1.80;99.90;;;;;;5071583;28;20045;-59
2022/01/31 11:19:55;;;;;;;19.15;8.90;;;1.70;99.90;;;;;;5072233;28;20090;-59
2022/01/31 11:22:30;;;;;;;23.55;9.38;;;1.60;99.90;;;;;;5072188;28;20044;-59
2022/01/31 11:25:19;;;;;;;21.20;8.27;;;1.70;99.90;;;;;;5071939;28;20496;-58
2022/01/31 11:27:52;;;;;;;14.75;7.93;;;1.70;99.90;;;;;;5071487;28;20132;-58
2022/01/31 11:30:22;;;;;;;13.43;7.85;;;1.70;99.90;;;;;;5072108;28;20037;-58
2022/01/31 11:32:51;;;;;;;26.50;13.52;;;1.80;99.90;;;;;;5072044;28;20047;-59
2022/01/31 11:35:18;;;;;;;28.10;13.23;;;2.00;99.90;;;;;;5071919;28;20040;-59
2022/01/31 11:37:44;;;;;;;31.88;15.85;;;2.00;99.90;;;;;;5071217;28;20044;-59
2022/01/31 11:40:13;;;;;;;22.35;13.55;;;2.10;99.90;;;;;;5071817;28;20119;-59
2022/01/31 11:42:46;;;;;;;25.52;11.65;;;2.10;99.90;;;;;;5071747;28;20125;-59
2022/01/31 11:45:27;;;;;;;17.67;10.15;;;2.10;99.90;;;;;;5071739;28;20051;-59
2022/01/31 11:47:57;;;;;;;19.98;10.25;;;2.00;99.90;;;;;;5071849;28;20044;-59
2022/01/31 11:50:24;;;;;;;12.40;7.07;;;2.10;99.90;;;;;;5071369;28;20055;-59
2022/01/31 11:52:56;;;;;;;12.55;7.68;;;2.10;99.90;;;;;;5071021;28;20114;-59
2022/01/31 11:55:35;;;;;;;20.08;10.25;;;2.20;99.90;;;;;;5071837;28;20044;-59
2022/01/31 11:58:08;;;;;;;23.42;12.10;;;2.40;99.90;;;;;;5071202;28;20086;-59
2022/01/31 12:00:38;;;;;;;18.35;7.32;;;2.60;99.90;;;;;;5071604;28;20048;-59
2022/01/31 12:03:09;;;;;;;11.68;6.97;;;2.80;99.90;;;;;;5071292;28;20393;-59
2022/01/31 12:05:38;;;;;;;14.63;8.00;;;3.00;99.90;;;;;;5071503;28;20075;-59
2022/01/31 12:08:18;;;;;;;12.95;7.40;;;3.30;99.90;;;;;;5071203;28;20432;-59
2022/01/31 12:10:55;;;;;;;14.35;7.80;;;3.30;99.90;;;;;;5071172;28;20072;-59
2022/01/31 12:13:40;;;;;;;11.13;6.10;;;3.10;99.90;;;;;;5071399;28;20041;-59
2022/01/31 12:16:31;;;;;;;12.48;6.88;;;3.10;99.90;;;;;;5071548;28;20047;-59
2022/01/31 12:19:17;;;;;;;16.20;7.30;;;3.20;99.90;;;;;;5070694;28;20044;-59
2022/01/31 12:22:00;;;;;;;11.90;6.68;;;3.10;99.90;;;;;;5071200;28;20550;-59
2022/01/31 12:24:39;;;;;;;12.15;7.65;;;3.00;99.90;;;;;;5056283;28;20052;-59
2022/01/31 12:27:25;;;;;;;14.90;8.85;;;2.90;99.90;;;;;;5070993;28;20118;-59
2022/01/31 12:29:59;;;;;;;19.70;8.30;;;2.90;99.90;;;;;;5071022;28;20059;-59
2022/01/31 12:32:35;;;;;;;14.52;7.35;;;2.90;99.90;;;;;;5071313;28;20040;-58
2022/01/31 12:35:08;;;;;;;13.90;7.50;;;2.90;99.90;;;;;;5071548;28;20036;-59
2022/01/31 12:37:39;;;;;;;13.70;6.82;;;2.90;99.90;;;;;;5070579;28;20045;-58
2022/01/31 12:40:11;;;;;;;10.18;6.80;;;2.90;99.90;;;;;;5071273;28;20045;-59
2022/01/31 12:45:39;;;;;;;17.27;8.85;;;3.00;99.90;;;;;;5071363;28;20385;-59
2022/01/31 12:48:12;;;;;;;15.13;9.30;;;2.60;99.90;;;;;;5052518;28;20520;-59
2022/01/31 12:50:44;;;;;;;12.90;6.90;;;3.00;99.90;;;;;;5071104;28;20069;-59
2022/01/31 12:53:46;;;;;;;17.92;7.60;;;3.00;99.90;;;;;;5071309;28;20041;-59
2022/01/31 12:56:25;;;;;;;18.23;8.88;;;3.10;99.90;;;;;;5070997;28;20054;-59
2022/01/31 12:59:03;;;;;;;14.27;7.03;;;3.10;99.90;;;;;;5070723;28;20398;-59
2022/01/31 13:01:31;;;;;;;;;;;2.90;99.90;;;;;;5071137;28;20522;-59
2022/01/31 13:04:06;;;;;;;;;;;2.60;99.90;;;;;;5072115;28;19956;-59
2022/01/31 13:06:39;;;;;;;9.68;4.78;;;2.70;99.90;;;;;;5074996;28;20288;-60
2022/01/31 13:09:13;;;;;;;14.55;6.70;;;2.80;99.90;;;;;;5074530;28;20475;-60
2022/01/31 13:11:43;;;;;;;14.15;7.57;;;3.00;99.90;;;;;;5074487;28;20068;-60
2022/01/31 13:14:19;;;;;;;15.55;9.23;;;3.20;99.90;;;;;;5074348;28;20040;-59
2022/01/31 13:17:18;;;;;;;18.35;8.77;;;3.20;99.90;;;;;;5074297;28;20044;-59
2022/01/31 13:19:59;;;;;;;11.70;7.10;;;3.20;99.90;;;;;;5074406;28;20512;-59
2022/01/31 13:22:33;;;;;;;9.85;5.72;;;3.30;99.90;;;;;;5074474;28;20438;-59
2022/01/31 13:25:02;;;;;;;12.63;7.47;;;3.10;99.90;;;;;;5074454;28;20447;-59
2022/01/31 13:27:50;;;;;;;12.07;5.45;;;2.90;99.90;;;;;;5073538;28;20034;-59
2022/01/31 13:30:23;;;;;;;9.77;5.05;;;3.00;99.90;;;;;;5074280;28;20047;-60
2022/01/31 13:32:51;;;;;;;10.75;5.00;;;3.20;99.90;;;;;;5074295;28;20484;-59
2022/01/31 13:35:27;;;;;;;13.80;4.78;;;3.30;99.90;;;;;;5074134;28;20090;-59
2022/01/31 13:38:09;;;;;;;9.63;4.07;;;3.60;99.90;;;;;;5073717;28;20048;-58
2022/01/31 13:40:48;;;;;;;16.83;6.18;;;3.90;99.90;;;;;;5074070;28;20597;-60
2022/01/31 13:43:22;;;;;;;16.02;9.02;;;3.80;99.90;;;;;;5074043;28;20090;-60
2022/01/31 13:46:11;;;;;;;12.40;7.25;;;3.80;99.90;;;;;;5074022;28;20123;-60